sensor_id;sensor_type;location;lat;lon;timestamp;temperature;humidity
76996;DHT22;65929;49.062;10.338;2023-05-07T00:00:51;9.40;91.10
76996;DHT22;65929;49.062;10.338;2023-05-07T00:01:54;9.30;91.00
76996;DHT22;65929;49.062;10.338;2023-05-07T00:02:55;9.20;91.10
76996;DHT22;65929;49.062;10.338;2023-05-07T00:03:56;9.20;91.30
76996;DHT22;65929;49.062;10.338;2023-05-07T00:04:57;9.20;91.50
76996;DHT22;65929;49.062;10.338;2023-05-07T00:05:58;9.20;91.70
76996;DHT22;65929;49.062;10.338;2023-05-07T00:06:59;9.20;91.80
76996;DHT22;65929;49.062;10.338;2023-05-07T00:08:09;9.20;91.80
76996;DHT22;65929;49.062;10.338;2023-05-07T00:09:19;9.20;91.90
76996;DHT22;65929;49.062;10.338;2023-05-07T00:10:37;9.10;92.00
76996;DHT22;65929;49.062;10.338;2023-05-07T00:11:38;9.10;92.00
76996;DHT22;65929;49.062;10.338;2023-05-07T00:12:56;9.10;92.00
76996;DHT22;65929;49.062;10.338;2023-05-07T00:13:57;9.10;91.90
76996;DHT22;65929;49.062;10.338;2023-05-07T00:14:58;9.00;91.90
76996;DHT22;65929;49.062;10.338;2023-05-07T00:15:59;9.00;92.00
76996;DHT22;65929;49.062;10.338;2023-05-07T00:17:01;9.00;92.00
76996;DHT22;65929;49.062;10.338;2023-05-07T00:18:02;9.00;92.00
76996;DHT22;65929;49.062;10.338;2023-05-07T00:19:04;9.00;91.90
76996;DHT22;65929;49.062;10.338;2023-05-07T00:20:05;9.00;91.90
76996;DHT22;65929;49.062;10.338;2023-05-07T00:21:06;9.00;91.90
76996;DHT22;65929;49.062;10.338;2023-05-07T00:22:08;9.00;91.90
76996;DHT22;65929;49.062;10.338;2023-05-07T00:23:09;9.00;91.80
76996;DHT22;65929;49.062;10.338;2023-05-07T00:24:10;9.00;91.80
76996;DHT22;65929;49.062;10.338;2023-05-07T00:25:11;9.00;91.80
76996;DHT22;65929;49.062;10.338;2023-05-07T00:26:12;9.00;91.80
76996;DHT22;65929;49.062;10.338;2023-05-07T00:27:13;9.00;91.60
76996;DHT22;65929;49.062;10.338;2023-05-07T00:28:14;9.00;91.60
76996;DHT22;65929;49.062;10.338;2023-05-07T00:29:15;9.00;91.70
76996;DHT22;65929;49.062;10.338;2023-05-07T00:30:16;9.00;91.70
76996;DHT22;65929;49.062;10.338;2023-05-07T00:31:17;9.00;91.70
76996;DHT22;65929;49.062;10.338;2023-05-07T00:32:19;8.90;91.70
76996;DHT22;65929;49.062;10.338;2023-05-07T00:33:21;8.90;91.80
76996;DHT22;65929;49.062;10.338;2023-05-07T00:34:22;8.90;92.10
76996;DHT22;65929;49.062;10.338;2023-05-07T00:35:23;8.90;92.20
76996;DHT22;65929;49.062;10.338;2023-05-07T00:36:24;8.90;92.30
76996;DHT22;65929;49.062;10.338;2023-05-07T00:37:26;8.90;92.40
76996;DHT22;65929;49.062;10.338;2023-05-07T00:38:27;8.90;92.50
76996;DHT22;65929;49.062;10.338;2023-05-07T00:39:28;8.90;92.50
76996;DHT22;65929;49.062;10.338;2023-05-07T00:40:29;8.90;92.50
76996;DHT22;65929;49.062;10.338;2023-05-07T00:41:30;8.90;92.50
76996;DHT22;65929;49.062;10.338;2023-05-07T00:42:31;8.80;92.40
76996;DHT22;65929;49.062;10.338;2023-05-07T00:43:33;8.80;92.30
76996;DHT22;65929;49.062;10.338;2023-05-07T00:44:34;8.80;92.20
76996;DHT22;65929;49.062;10.338;2023-05-07T00:45:34;8.80;92.30
76996;DHT22;65929;49.062;10.338;2023-05-07T00:46:35;8.80;92.20
76996;DHT22;65929;49.062;10.338;2023-05-07T00:47:38;8.80;92.20
76996;DHT22;65929;49.062;10.338;2023-05-07T00:48:39;8.80;92.20
76996;DHT22;65929;49.062;10.338;2023-05-07T00:49:42;8.80;92.20
76996;DHT22;65929;49.062;10.338;2023-05-07T00:50:44;8.80;92.20
76996;DHT22;65929;49.062;10.338;2023-05-07T00:51:45;8.80;92.20
76996;DHT22;65929;49.062;10.338;2023-05-07T00:52:46;8.80;92.30
76996;DHT22;65929;49.062;10.338;2023-05-07T00:53:47;8.80;92.30
76996;DHT22;65929;49.062;10.338;2023-05-07T00:54:48;8.80;92.40
76996;DHT22;65929;49.062;10.338;2023-05-07T00:55:50;8.80;92.30
76996;DHT22;65929;49.062;10.338;2023-05-07T00:56:51;8.80;92.30
76996;DHT22;65929;49.062;10.338;2023-05-07T00:57:52;8.80;92.30
76996;DHT22;65929;49.062;10.338;2023-05-07T00:58:53;8.80;92.60
76996;DHT22;65929;49.062;10.338;2023-05-07T00:59:54;8.80;92.70
76996;DHT22;65929;49.062;10.338;2023-05-07T01:00:55;8.80;92.80
76996;DHT22;65929;49.062;10.338;2023-05-07T01:01:56;8.80;93.00
76996;DHT22;65929;49.062;10.338;2023-05-07T01:02:59;8.80;93.00
76996;DHT22;65929;49.062;10.338;2023-05-07T01:04:00;8.80;93.00
76996;DHT22;65929;49.062;10.338;2023-05-07T01:05:02;8.80;92.90
76996;DHT22;65929;49.062;10.338;2023-05-07T01:06:05;8.80;93.00
76996;DHT22;65929;49.062;10.338;2023-05-07T01:07:08;8.70;92.90
76996;DHT22;65929;49.062;10.338;2023-05-07T01:08:09;8.70;93.00
76996;DHT22;65929;49.062;10.338;2023-05-07T01:09:11;8.70;93.00
76996;DHT22;65929;49.062;10.338;2023-05-07T01:10:13;8.70;93.10
76996;DHT22;65929;49.062;10.338;2023-05-07T01:11:14;8.60;93.00
76996;DHT22;65929;49.062;10.338;2023-05-07T01:12:15;8.60;93.00
76996;DHT22;65929;49.062;10.338;2023-05-07T01:13:17;8.60;93.00
76996;DHT22;65929;49.062;10.338;2023-05-07T01:14:19;8.60;93.10
76996;DHT22;65929;49.062;10.338;2023-05-07T01:15:21;8.70;93.20
76996;DHT22;65929;49.062;10.338;2023-05-07T01:16:22;8.70;93.30
76996;DHT22;65929;49.062;10.338;2023-05-07T01:17:23;8.70;93.20
76996;DHT22;65929;49.062;10.338;2023-05-07T01:18:25;8.70;93.20
76996;DHT22;65929;49.062;10.338;2023-05-07T01:19:29;8.70;93.20
76996;DHT22;65929;49.062;10.338;2023-05-07T01:20:30;8.70;93.20
76996;DHT22;65929;49.062;10.338;2023-05-07T01:21:33;8.60;93.20
76996;DHT22;65929;49.062;10.338;2023-05-07T01:22:38;8.60;93.20
76996;DHT22;65929;49.062;10.338;2023-05-07T01:23:39;8.60;93.10
76996;DHT22;65929;49.062;10.338;2023-05-07T01:24:41;8.60;93.00
76996;DHT22;65929;49.062;10.338;2023-05-07T01:25:43;8.60;93.00
76996;DHT22;65929;49.062;10.338;2023-05-07T01:26:44;8.60;92.90
76996;DHT22;65929;49.062;10.338;2023-05-07T01:27:45;8.60;92.90
76996;DHT22;65929;49.062;10.338;2023-05-07T01:28:46;8.60;92.90
76996;DHT22;65929;49.062;10.338;2023-05-07T01:29:47;8.60;92.90
76996;DHT22;65929;49.062;10.338;2023-05-07T01:30:51;8.60;92.80
76996;DHT22;65929;49.062;10.338;2023-05-07T01:31:52;8.60;92.80
76996;DHT22;65929;49.062;10.338;2023-05-07T01:33:00;8.60;92.70
76996;DHT22;65929;49.062;10.338;2023-05-07T01:34:05;8.60;92.60
76996;DHT22;65929;49.062;10.338;2023-05-07T01:35:12;8.60;92.60
76996;DHT22;65929;49.062;10.338;2023-05-07T01:36:14;8.60;92.50
76996;DHT22;65929;49.062;10.338;2023-05-07T01:37:16;8.60;92.60
76996;DHT22;65929;49.062;10.338;2023-05-07T01:38:19;8.50;92.60
76996;DHT22;65929;49.062;10.338;2023-05-07T01:39:22;8.50;92.60
76996;DHT22;65929;49.062;10.338;2023-05-07T01:40:24;8.50;92.50
76996;DHT22;65929;49.062;10.338;2023-05-07T01:41:26;8.50;92.50
76996;DHT22;65929;49.062;10.338;2023-05-07T01:42:28;8.50;92.50
76996;DHT22;65929;49.062;10.338;2023-05-07T01:43:30;8.50;92.40
76996;DHT22;65929;49.062;10.338;2023-05-07T01:44:31;8.50;92.50
76996;DHT22;65929;49.062;10.338;2023-05-07T01:45:32;8.50;92.50
76996;DHT22;65929;49.062;10.338;2023-05-07T01:46:34;8.50;92.60
76996;DHT22;65929;49.062;10.338;2023-05-07T01:47:36;8.50;92.50
76996;DHT22;65929;49.062;10.338;2023-05-07T01:48:38;8.50;92.40
76996;DHT22;65929;49.062;10.338;2023-05-07T01:49:39;8.50;92.40
76996;DHT22;65929;49.062;10.338;2023-05-07T01:50:40;8.50;92.40
76996;DHT22;65929;49.062;10.338;2023-05-07T01:51:43;8.50;92.30
76996;DHT22;65929;49.062;10.338;2023-05-07T01:52:44;8.50;92.20
76996;DHT22;65929;49.062;10.338;2023-05-07T01:53:46;8.50;92.10
76996;DHT22;65929;49.062;10.338;2023-05-07T01:54:51;8.40;92.10
76996;DHT22;65929;49.062;10.338;2023-05-07T01:55:52;8.40;92.10
76996;DHT22;65929;49.062;10.338;2023-05-07T01:56:53;8.40;92.20
76996;DHT22;65929;49.062;10.338;2023-05-07T01:57:54;8.40;92.30
76996;DHT22;65929;49.062;10.338;2023-05-07T01:58:55;8.40;92.40
76996;DHT22;65929;49.062;10.338;2023-05-07T01:59:56;8.40;92.50
76996;DHT22;65929;49.062;10.338;2023-05-07T02:00:57;8.40;92.70
76996;DHT22;65929;49.062;10.338;2023-05-07T02:01:58;8.40;92.90
76996;DHT22;65929;49.062;10.338;2023-05-07T02:02:59;8.40;92.90
76996;DHT22;65929;49.062;10.338;2023-05-07T02:04:00;8.30;93.00
76996;DHT22;65929;49.062;10.338;2023-05-07T02:05:01;8.30;93.00
76996;DHT22;65929;49.062;10.338;2023-05-07T02:06:02;8.30;93.20
76996;DHT22;65929;49.062;10.338;2023-05-07T02:07:03;8.30;93.40
76996;DHT22;65929;49.062;10.338;2023-05-07T02:08:04;8.30;93.50
76996;DHT22;65929;49.062;10.338;2023-05-07T02:09:07;8.30;93.60
76996;DHT22;65929;49.062;10.338;2023-05-07T02:10:10;8.30;93.60
76996;DHT22;65929;49.062;10.338;2023-05-07T02:11:10;8.30;93.50
76996;DHT22;65929;49.062;10.338;2023-05-07T02:12:11;8.30;93.40
76996;DHT22;65929;49.062;10.338;2023-05-07T02:13:12;8.30;93.40
76996;DHT22;65929;49.062;10.338;2023-05-07T02:14:13;8.30;93.30
76996;DHT22;65929;49.062;10.338;2023-05-07T02:15:14;8.20;93.20
76996;DHT22;65929;49.062;10.338;2023-05-07T02:16:15;8.30;93.20
76996;DHT22;65929;49.062;10.338;2023-05-07T02:17:16;8.20;93.00
76996;DHT22;65929;49.062;10.338;2023-05-07T02:18:17;8.20;93.00
76996;DHT22;65929;49.062;10.338;2023-05-07T02:19:18;8.20;93.00
76996;DHT22;65929;49.062;10.338;2023-05-07T02:20:21;8.20;93.00
76996;DHT22;65929;49.062;10.338;2023-05-07T02:21:22;8.20;92.90
76996;DHT22;65929;49.062;10.338;2023-05-07T02:22:23;8.20;92.90
76996;DHT22;65929;49.062;10.338;2023-05-07T02:23:24;8.20;92.80
76996;DHT22;65929;49.062;10.338;2023-05-07T02:24:27;8.20;92.70
76996;DHT22;65929;49.062;10.338;2023-05-07T02:25:27;8.10;92.60
76996;DHT22;65929;49.062;10.338;2023-05-07T02:26:29;8.10;92.60
76996;DHT22;65929;49.062;10.338;2023-05-07T02:27:30;8.10;92.70
76996;DHT22;65929;49.062;10.338;2023-05-07T02:28:31;8.10;92.70
76996;DHT22;65929;49.062;10.338;2023-05-07T02:29:32;8.10;92.80
76996;DHT22;65929;49.062;10.338;2023-05-07T02:30:33;8.10;92.70
76996;DHT22;65929;49.062;10.338;2023-05-07T02:31:34;8.10;92.70
76996;DHT22;65929;49.062;10.338;2023-05-07T02:32:35;8.10;92.70
76996;DHT22;65929;49.062;10.338;2023-05-07T02:33:36;8.10;92.80
76996;DHT22;65929;49.062;10.338;2023-05-07T02:34:37;8.10;92.90
76996;DHT22;65929;49.062;10.338;2023-05-07T02:35:38;8.10;93.00
76996;DHT22;65929;49.062;10.338;2023-05-07T02:36:39;8.00;93.10
76996;DHT22;65929;49.062;10.338;2023-05-07T02:37:40;8.10;93.50
76996;DHT22;65929;49.062;10.338;2023-05-07T02:38:41;8.10;93.70
76996;DHT22;65929;49.062;10.338;2023-05-07T02:39:43;8.10;93.80
76996;DHT22;65929;49.062;10.338;2023-05-07T02:40:44;8.10;93.70
76996;DHT22;65929;49.062;10.338;2023-05-07T02:41:45;8.00;93.70
76996;DHT22;65929;49.062;10.338;2023-05-07T02:42:46;8.00;93.80
76996;DHT22;65929;49.062;10.338;2023-05-07T02:43:47;8.10;93.80
76996;DHT22;65929;49.062;10.338;2023-05-07T02:44:48;8.00;93.80
76996;DHT22;65929;49.062;10.338;2023-05-07T02:45:49;8.00;93.90
76996;DHT22;65929;49.062;10.338;2023-05-07T02:46:50;8.00;93.90
76996;DHT22;65929;49.062;10.338;2023-05-07T02:47:51;8.00;93.90
76996;DHT22;65929;49.062;10.338;2023-05-07T02:48:51;8.00;94.10
76996;DHT22;65929;49.062;10.338;2023-05-07T02:49:53;8.00;94.10
76996;DHT22;65929;49.062;10.338;2023-05-07T02:50:53;8.00;94.20
76996;DHT22;65929;49.062;10.338;2023-05-07T02:51:54;8.00;94.30
76996;DHT22;65929;49.062;10.338;2023-05-07T02:52:56;8.00;94.30
76996;DHT22;65929;49.062;10.338;2023-05-07T02:53:57;8.00;94.20
76996;DHT22;65929;49.062;10.338;2023-05-07T02:54:59;8.00;94.40
76996;DHT22;65929;49.062;10.338;2023-05-07T02:56:01;8.00;94.60
76996;DHT22;65929;49.062;10.338;2023-05-07T02:57:02;7.90;94.60
76996;DHT22;65929;49.062;10.338;2023-05-07T02:58:03;7.90;94.60
76996;DHT22;65929;49.062;10.338;2023-05-07T02:59:04;7.90;94.60
76996;DHT22;65929;49.062;10.338;2023-05-07T03:00:16;7.80;94.60
76996;DHT22;65929;49.062;10.338;2023-05-07T03:01:17;7.80;94.70
76996;DHT22;65929;49.062;10.338;2023-05-07T03:02:18;7.80;94.60
76996;DHT22;65929;49.062;10.338;2023-05-07T03:03:19;7.80;94.60
76996;DHT22;65929;49.062;10.338;2023-05-07T03:04:20;7.80;94.70
76996;DHT22;65929;49.062;10.338;2023-05-07T03:05:21;7.80;94.70
76996;DHT22;65929;49.062;10.338;2023-05-07T03:06:22;7.80;94.70
76996;DHT22;65929;49.062;10.338;2023-05-07T03:07:23;7.80;94.80
76996;DHT22;65929;49.062;10.338;2023-05-07T03:08:24;7.80;94.90
76996;DHT22;65929;49.062;10.338;2023-05-07T03:09:25;7.80;94.90
76996;DHT22;65929;49.062;10.338;2023-05-07T03:10:27;7.80;94.90
76996;DHT22;65929;49.062;10.338;2023-05-07T03:11:28;7.80;95.00
76996;DHT22;65929;49.062;10.338;2023-05-07T03:12:30;7.80;95.10
76996;DHT22;65929;49.062;10.338;2023-05-07T03:13:31;7.80;95.10
76996;DHT22;65929;49.062;10.338;2023-05-07T03:14:32;7.80;95.10
76996;DHT22;65929;49.062;10.338;2023-05-07T03:15:33;7.80;95.20
76996;DHT22;65929;49.062;10.338;2023-05-07T03:16:34;7.80;95.10
76996;DHT22;65929;49.062;10.338;2023-05-07T03:17:35;7.80;95.10
76996;DHT22;65929;49.062;10.338;2023-05-07T03:18:36;7.80;95.20
76996;DHT22;65929;49.062;10.338;2023-05-07T03:19:37;7.80;95.20
76996;DHT22;65929;49.062;10.338;2023-05-07T03:20:38;7.80;95.20
76996;DHT22;65929;49.062;10.338;2023-05-07T03:21:39;7.80;95.20
76996;DHT22;65929;49.062;10.338;2023-05-07T03:22:40;7.80;95.10
76996;DHT22;65929;49.062;10.338;2023-05-07T03:23:41;7.80;95.10
76996;DHT22;65929;49.062;10.338;2023-05-07T03:24:42;7.80;95.00
76996;DHT22;65929;49.062;10.338;2023-05-07T03:25:44;7.80;95.00
76996;DHT22;65929;49.062;10.338;2023-05-07T03:26:45;7.80;94.90
76996;DHT22;65929;49.062;10.338;2023-05-07T03:27:46;7.80;94.90
76996;DHT22;65929;49.062;10.338;2023-05-07T03:28:47;7.80;94.90
76996;DHT22;65929;49.062;10.338;2023-05-07T03:29:48;7.70;94.80
76996;DHT22;65929;49.062;10.338;2023-05-07T03:30:49;7.70;94.90
76996;DHT22;65929;49.062;10.338;2023-05-07T03:31:50;7.70;94.80
76996;DHT22;65929;49.062;10.338;2023-05-07T03:32:51;7.70;94.90
76996;DHT22;65929;49.062;10.338;2023-05-07T03:33:53;7.70;95.00
76996;DHT22;65929;49.062;10.338;2023-05-07T03:34:54;7.70;95.00
76996;DHT22;65929;49.062;10.338;2023-05-07T03:35:56;7.70;95.10
76996;DHT22;65929;49.062;10.338;2023-05-07T03:36:57;7.70;95.10
76996;DHT22;65929;49.062;10.338;2023-05-07T03:37:58;7.70;95.10
76996;DHT22;65929;49.062;10.338;2023-05-07T03:38:59;7.70;95.10
76996;DHT22;65929;49.062;10.338;2023-05-07T03:40:00;7.70;95.10
76996;DHT22;65929;49.062;10.338;2023-05-07T03:41:02;7.70;95.10
76996;DHT22;65929;49.062;10.338;2023-05-07T03:42:03;7.60;95.10
76996;DHT22;65929;49.062;10.338;2023-05-07T03:43:04;7.60;95.20
76996;DHT22;65929;49.062;10.338;2023-05-07T03:44:05;7.60;95.20
76996;DHT22;65929;49.062;10.338;2023-05-07T03:45:07;7.60;95.30
76996;DHT22;65929;49.062;10.338;2023-05-07T03:46:09;7.60;95.30
76996;DHT22;65929;49.062;10.338;2023-05-07T03:47:10;7.60;95.30
76996;DHT22;65929;49.062;10.338;2023-05-07T03:48:11;7.70;95.40
76996;DHT22;65929;49.062;10.338;2023-05-07T03:49:12;7.60;95.50
76996;DHT22;65929;49.062;10.338;2023-05-07T03:50:13;7.70;95.50
76996;DHT22;65929;49.062;10.338;2023-05-07T03:51:13;7.60;95.60
76996;DHT22;65929;49.062;10.338;2023-05-07T03:52:14;7.60;95.70
76996;DHT22;65929;49.062;10.338;2023-05-07T03:53:15;7.60;95.70
76996;DHT22;65929;49.062;10.338;2023-05-07T03:54:16;7.60;95.70
76996;DHT22;65929;49.062;10.338;2023-05-07T03:55:17;7.60;95.80
76996;DHT22;65929;49.062;10.338;2023-05-07T03:56:20;7.60;95.80
76996;DHT22;65929;49.062;10.338;2023-05-07T03:57:21;7.60;95.90
76996;DHT22;65929;49.062;10.338;2023-05-07T03:58:22;7.70;95.90
76996;DHT22;65929;49.062;10.338;2023-05-07T03:59:23;7.70;95.90
76996;DHT22;65929;49.062;10.338;2023-05-07T04:00:24;7.70;95.90
76996;DHT22;65929;49.062;10.338;2023-05-07T04:01:25;7.70;95.90
76996;DHT22;65929;49.062;10.338;2023-05-07T04:02:26;7.70;95.90
76996;DHT22;65929;49.062;10.338;2023-05-07T04:03:27;7.70;95.90
76996;DHT22;65929;49.062;10.338;2023-05-07T04:04:28;7.80;95.90
76996;DHT22;65929;49.062;10.338;2023-05-07T04:05:33;7.80;95.90
76996;DHT22;65929;49.062;10.338;2023-05-07T04:06:34;7.80;96.00
76996;DHT22;65929;49.062;10.338;2023-05-07T04:07:35;7.80;96.10
76996;DHT22;65929;49.062;10.338;2023-05-07T04:08:36;7.80;96.10
76996;DHT22;65929;49.062;10.338;2023-05-07T04:09:37;7.90;96.20
76996;DHT22;65929;49.062;10.338;2023-05-07T04:10:38;7.90;96.20
76996;DHT22;65929;49.062;10.338;2023-05-07T04:11:40;7.90;96.20
76996;DHT22;65929;49.062;10.338;2023-05-07T04:12:41;7.90;96.20
76996;DHT22;65929;49.062;10.338;2023-05-07T04:13:42;7.90;96.20
76996;DHT22;65929;49.062;10.338;2023-05-07T04:14:43;8.00;96.20
76996;DHT22;65929;49.062;10.338;2023-05-07T04:15:44;8.00;96.10
76996;DHT22;65929;49.062;10.338;2023-05-07T04:16:47;8.00;96.10
76996;DHT22;65929;49.062;10.338;2023-05-07T04:17:47;8.00;96.10
76996;DHT22;65929;49.062;10.338;2023-05-07T04:18:48;8.00;96.10
76996;DHT22;65929;49.062;10.338;2023-05-07T04:19:50;8.00;96.00
76996;DHT22;65929;49.062;10.338;2023-05-07T04:20:50;8.00;95.90
76996;DHT22;65929;49.062;10.338;2023-05-07T04:21:52;8.00;95.80
76996;DHT22;65929;49.062;10.338;2023-05-07T04:22:52;8.00;95.80
76996;DHT22;65929;49.062;10.338;2023-05-07T04:23:53;8.10;95.70
76996;DHT22;65929;49.062;10.338;2023-05-07T04:24:54;8.10;95.60
76996;DHT22;65929;49.062;10.338;2023-05-07T04:25:55;8.10;95.50
76996;DHT22;65929;49.062;10.338;2023-05-07T04:26:59;8.10;95.50
76996;DHT22;65929;49.062;10.338;2023-05-07T04:28:00;8.20;95.40
76996;DHT22;65929;49.062;10.338;2023-05-07T04:29:01;8.20;95.30
76996;DHT22;65929;49.062;10.338;2023-05-07T04:30:02;8.20;95.30
76996;DHT22;65929;49.062;10.338;2023-05-07T04:31:03;8.20;95.10
76996;DHT22;65929;49.062;10.338;2023-05-07T04:32:04;8.20;95.10
76996;DHT22;65929;49.062;10.338;2023-05-07T04:33:05;8.30;95.00
76996;DHT22;65929;49.062;10.338;2023-05-07T04:34:07;8.30;95.00
76996;DHT22;65929;49.062;10.338;2023-05-07T04:35:09;8.30;94.90
76996;DHT22;65929;49.062;10.338;2023-05-07T04:36:10;8.30;94.90
76996;DHT22;65929;49.062;10.338;2023-05-07T04:37:11;8.40;94.80
76996;DHT22;65929;49.062;10.338;2023-05-07T04:38:12;8.40;94.70
76996;DHT22;65929;49.062;10.338;2023-05-07T04:39:13;8.40;94.60
76996;DHT22;65929;49.062;10.338;2023-05-07T04:40:14;8.40;94.40
76996;DHT22;65929;49.062;10.338;2023-05-07T04:41:16;8.40;94.30
76996;DHT22;65929;49.062;10.338;2023-05-07T04:42:18;8.40;94.10
76996;DHT22;65929;49.062;10.338;2023-05-07T04:43:19;8.50;94.00
76996;DHT22;65929;49.062;10.338;2023-05-07T04:44:21;8.50;93.90
76996;DHT22;65929;49.062;10.338;2023-05-07T04:45:22;8.50;93.90
76996;DHT22;65929;49.062;10.338;2023-05-07T04:46:23;8.60;93.70
76996;DHT22;65929;49.062;10.338;2023-05-07T04:47:24;8.60;93.70
76996;DHT22;65929;49.062;10.338;2023-05-07T04:48:25;8.60;93.70
76996;DHT22;65929;49.062;10.338;2023-05-07T04:49:27;8.60;93.70
76996;DHT22;65929;49.062;10.338;2023-05-07T04:50:27;8.70;93.60
76996;DHT22;65929;49.062;10.338;2023-05-07T04:51:28;8.80;93.50
76996;DHT22;65929;49.062;10.338;2023-05-07T04:52:29;8.80;93.30
76996;DHT22;65929;49.062;10.338;2023-05-07T04:53:30;8.80;93.20
76996;DHT22;65929;49.062;10.338;2023-05-07T04:54:31;8.90;93.00
76996;DHT22;65929;49.062;10.338;2023-05-07T04:55:32;8.90;92.90
76996;DHT22;65929;49.062;10.338;2023-05-07T04:56:33;8.90;92.70
76996;DHT22;65929;49.062;10.338;2023-05-07T04:57:35;9.00;92.60
76996;DHT22;65929;49.062;10.338;2023-05-07T04:58:36;9.00;92.50
76996;DHT22;65929;49.062;10.338;2023-05-07T04:59:37;9.00;92.20
76996;DHT22;65929;49.062;10.338;2023-05-07T05:00:38;9.00;92.20
76996;DHT22;65929;49.062;10.338;2023-05-07T05:01:43;9.00;92.00
76996;DHT22;65929;49.062;10.338;2023-05-07T05:02:44;9.10;92.00
76996;DHT22;65929;49.062;10.338;2023-05-07T05:03:45;9.20;92.00
76996;DHT22;65929;49.062;10.338;2023-05-07T05:04:46;9.20;91.90
76996;DHT22;65929;49.062;10.338;2023-05-07T05:05:49;9.20;91.60
76996;DHT22;65929;49.062;10.338;2023-05-07T05:06:50;9.20;91.10
76996;DHT22;65929;49.062;10.338;2023-05-07T05:07:50;9.20;90.80
76996;DHT22;65929;49.062;10.338;2023-05-07T05:08:52;9.20;90.70
76996;DHT22;65929;49.062;10.338;2023-05-07T05:09:53;9.20;90.60
76996;DHT22;65929;49.062;10.338;2023-05-07T05:10:54;9.30;90.60
76996;DHT22;65929;49.062;10.338;2023-05-07T05:11:55;9.30;90.50
76996;DHT22;65929;49.062;10.338;2023-05-07T05:12:57;9.40;90.60
76996;DHT22;65929;49.062;10.338;2023-05-07T05:13:59;9.40;90.50
76996;DHT22;65929;49.062;10.338;2023-05-07T05:15:01;9.40;90.30
76996;DHT22;65929;49.062;10.338;2023-05-07T05:16:02;9.40;90.10
76996;DHT22;65929;49.062;10.338;2023-05-07T05:17:02;9.40;90.00
76996;DHT22;65929;49.062;10.338;2023-05-07T05:18:03;9.40;90.20
76996;DHT22;65929;49.062;10.338;2023-05-07T05:19:05;9.40;90.20
76996;DHT22;65929;49.062;10.338;2023-05-07T05:20:06;9.40;90.20
76996;DHT22;65929;49.062;10.338;2023-05-07T05:21:07;9.30;90.30
76996;DHT22;65929;49.062;10.338;2023-05-07T05:22:08;9.30;90.60
76996;DHT22;65929;49.062;10.338;2023-05-07T05:23:09;9.20;90.80
76996;DHT22;65929;49.062;10.338;2023-05-07T05:24:10;9.20;91.10
76996;DHT22;65929;49.062;10.338;2023-05-07T05:25:11;9.20;91.40
76996;DHT22;65929;49.062;10.338;2023-05-07T05:26:12;9.20;91.70
76996;DHT22;65929;49.062;10.338;2023-05-07T05:27:13;9.30;91.90
76996;DHT22;65929;49.062;10.338;2023-05-07T05:28:15;9.30;92.00
76996;DHT22;65929;49.062;10.338;2023-05-07T05:29:16;9.30;92.10
76996;DHT22;65929;49.062;10.338;2023-05-07T05:30:17;9.40;92.10
76996;DHT22;65929;49.062;10.338;2023-05-07T05:31:18;9.40;92.00
76996;DHT22;65929;49.062;10.338;2023-05-07T05:32:19;9.40;92.00
76996;DHT22;65929;49.062;10.338;2023-05-07T05:33:20;9.50;92.00
76996;DHT22;65929;49.062;10.338;2023-05-07T05:34:21;9.50;91.80
76996;DHT22;65929;49.062;10.338;2023-05-07T05:35:22;9.60;91.60
76996;DHT22;65929;49.062;10.338;2023-05-07T05:36:23;9.70;91.30
76996;DHT22;65929;49.062;10.338;2023-05-07T05:37:25;9.70;90.90
76996;DHT22;65929;49.062;10.338;2023-05-07T05:38:26;9.80;90.60
76996;DHT22;65929;49.062;10.338;2023-05-07T05:39:27;9.90;90.20
76996;DHT22;65929;49.062;10.338;2023-05-07T05:40:28;10.00;90.10
76996;DHT22;65929;49.062;10.338;2023-05-07T05:41:29;10.00;90.00
76996;DHT22;65929;49.062;10.338;2023-05-07T05:42:30;10.10;89.80
76996;DHT22;65929;49.062;10.338;2023-05-07T05:43:32;10.20;89.70
76996;DHT22;65929;49.062;10.338;2023-05-07T05:44:33;10.30;89.10
76996;DHT22;65929;49.062;10.338;2023-05-07T05:45:35;10.40;88.90
76996;DHT22;65929;49.062;10.338;2023-05-07T05:46:36;10.50;88.40
76996;DHT22;65929;49.062;10.338;2023-05-07T05:47:37;10.70;87.70
76996;DHT22;65929;49.062;10.338;2023-05-07T05:48:39;10.80;87.40
76996;DHT22;65929;49.062;10.338;2023-05-07T05:49:39;10.90;86.80
76996;DHT22;65929;49.062;10.338;2023-05-07T05:50:42;11.00;86.10
76996;DHT22;65929;49.062;10.338;2023-05-07T05:51:43;11.10;85.80
76996;DHT22;65929;49.062;10.338;2023-05-07T05:52:44;11.10;85.70
76996;DHT22;65929;49.062;10.338;2023-05-07T05:53:45;11.30;85.60
76996;DHT22;65929;49.062;10.338;2023-05-07T05:54:46;11.40;85.70
76996;DHT22;65929;49.062;10.338;2023-05-07T05:55:47;11.50;85.50
76996;DHT22;65929;49.062;10.338;2023-05-07T05:56:48;11.60;85.40
76996;DHT22;65929;49.062;10.338;2023-05-07T05:57:49;11.70;84.30
76996;DHT22;65929;49.062;10.338;2023-05-07T05:58:52;11.80;83.30
76996;DHT22;65929;49.062;10.338;2023-05-07T05:59:53;11.90;82.90
76996;DHT22;65929;49.062;10.338;2023-05-07T06:00:54;11.90;82.30
76996;DHT22;65929;49.062;10.338;2023-05-07T06:01:55;11.90;82.70
76996;DHT22;65929;49.062;10.338;2023-05-07T06:02:56;12.00;82.50
76996;DHT22;65929;49.062;10.338;2023-05-07T06:03:57;12.00;82.70
76996;DHT22;65929;49.062;10.338;2023-05-07T06:04:58;12.10;81.90
76996;DHT22;65929;49.062;10.338;2023-05-07T06:05:59;12.10;81.80
76996;DHT22;65929;49.062;10.338;2023-05-07T06:07:00;12.10;81.80
76996;DHT22;65929;49.062;10.338;2023-05-07T06:08:01;12.10;82.20
76996;DHT22;65929;49.062;10.338;2023-05-07T06:09:03;12.10;81.90
76996;DHT22;65929;49.062;10.338;2023-05-07T06:10:04;12.10;82.20
76996;DHT22;65929;49.062;10.338;2023-05-07T06:11:06;12.10;82.20
76996;DHT22;65929;49.062;10.338;2023-05-07T06:12:07;12.20;82.20
76996;DHT22;65929;49.062;10.338;2023-05-07T06:13:08;12.20;82.20
76996;DHT22;65929;49.062;10.338;2023-05-07T06:14:10;12.30;82.00
76996;DHT22;65929;49.062;10.338;2023-05-07T06:15:11;12.40;82.20
76996;DHT22;65929;49.062;10.338;2023-05-07T06:16:12;12.50;82.00
76996;DHT22;65929;49.062;10.338;2023-05-07T06:17:13;12.50;81.70
76996;DHT22;65929;49.062;10.338;2023-05-07T06:18:14;12.60;81.20
76996;DHT22;65929;49.062;10.338;2023-05-07T06:19:15;12.70;81.00
76996;DHT22;65929;49.062;10.338;2023-05-07T06:20:18;12.70;81.30
76996;DHT22;65929;49.062;10.338;2023-05-07T06:21:19;12.80;81.50
76996;DHT22;65929;49.062;10.338;2023-05-07T06:22:20;12.90;81.10
76996;DHT22;65929;49.062;10.338;2023-05-07T06:23:22;13.00;81.40
76996;DHT22;65929;49.062;10.338;2023-05-07T06:24:23;13.10;81.30
76996;DHT22;65929;49.062;10.338;2023-05-07T06:25:25;13.10;81.30
76996;DHT22;65929;49.062;10.338;2023-05-07T06:26:26;13.30;81.20
76996;DHT22;65929;49.062;10.338;2023-05-07T06:27:27;13.30;81.50
76996;DHT22;65929;49.062;10.338;2023-05-07T06:28:28;13.40;81.50